KIWD/IWD METAR and TAF weather

Enter ICAO airport designator
Station Type Date Time Source
KIWD METAR 2019/08/25 17:56 UTC NOAA

KIWD 251756Z AUTO 20009G16KT 10SM OVC045 21/12 A3010 RMK AO2 SLP191 T02110117 10217 20128 56016


Station Type Date Time Source
KIWD Decoded METAR 2019/08/25 17:56 UTC NOAA

Station name not available
Aug 25, 2019 - 01:56 PM EDT / 2019.08.25 1756 UTC
Wind: from the SSW (200 degrees) at 10 MPH (9 KT) gusting to 18 MPH (16 KT):0
Visibility: 10 mile(s):0
Sky conditions: overcast
Temperature: 70.0 F (21.1 C)
Dew Point: 53.1 F (11.7 C)
Relative Humidity: 54%
Pressure (altimeter): 30.1 in. Hg (1019 hPa)
Pressure tendency: 0.05 inches (1.6 hPa) lower than three hours ago
ob: KIWD 251756Z AUTO 20009G16KT 10SM OVC045 21/12 A3010 RMK AO2 SLP191 T02110117 10217 20128 56016
cycle: 18

Station Type Date Time Source
KIWD TAF 2019/08/25 18:22 UTC NOAA

TAF KIWD 251720Z 2518/2618 18009KT P6SM BKN035
FM260200 16007KT P6SM BKN060
FM261100 16010G19KT P6SM VCSH BKN060
FM261700 17013G24KT P6SM -SHRA BKN050

Example: see airport list